createdAt,value
2022-11-26T00:01:42.812Z,6.43
2022-11-26T00:04:10.398Z,6.40
2022-11-26T00:06:42.457Z,6.37
2022-11-26T00:09:16.921Z,6.33
2022-11-26T00:11:43.571Z,6.30
2022-11-26T00:14:18.795Z,6.30
2022-11-26T00:16:45.357Z,6.30
2022-11-26T00:19:11.929Z,6.36
2022-11-26T00:21:40.548Z,6.42
2022-11-26T00:24:27.005Z,6.46
2022-11-26T00:26:56.812Z,6.48
2022-11-26T00:29:23.415Z,6.48
2022-11-26T00:31:50.090Z,6.50
2022-11-26T00:34:16.524Z,6.56
2022-11-26T00:36:44.291Z,6.71
2022-11-26T00:39:15.264Z,6.71
2022-11-26T00:41:41.854Z,6.75
2022-11-26T00:44:17.124Z,6.78
2022-11-26T00:46:43.668Z,6.82
2022-11-26T00:49:10.046Z,6.85
2022-11-26T00:51:37.050Z,6.86
2022-11-26T00:54:04.340Z,6.88
2022-11-26T00:56:37.816Z,6.89
2022-11-26T00:59:04.959Z,6.86
2022-11-26T01:01:33.003Z,6.84
2022-11-26T01:03:59.713Z,6.86
2022-11-26T01:06:33.249Z,6.88
2022-11-26T01:08:59.966Z,6.85
2022-11-26T01:11:27.348Z,6.81
2022-11-26T01:13:55.099Z,6.78
2022-11-26T01:16:27.714Z,6.77
2022-11-26T01:18:56.711Z,6.77
2022-11-26T01:21:25.745Z,6.73
2022-11-26T01:23:52.816Z,6.73
2022-11-26T01:26:25.522Z,6.70
2022-11-26T01:28:52.182Z,6.63
2022-11-26T01:31:29.801Z,6.53
2022-11-26T01:33:56.587Z,6.46
2022-11-26T01:36:27.822Z,6.38
2022-11-26T01:39:02.710Z,6.35
2022-11-26T01:41:39.741Z,6.31
2022-11-26T01:44:14.586Z,6.25
2022-11-26T01:46:41.022Z,6.17
2022-11-26T01:49:25.944Z,6.12
2022-11-26T01:52:24.789Z,6.08
2022-11-26T01:54:53.116Z,6.09
2022-11-26T01:57:27.355Z,6.07
2022-11-26T01:59:58.605Z,6.07
2022-11-26T02:02:27.315Z,6.07
2022-11-26T02:05:01.243Z,6.04
2022-11-26T02:07:27.918Z,6.01
2022-11-26T02:09:54.391Z,5.95
2022-11-26T02:12:21.153Z,5.88
2022-11-26T02:14:47.692Z,5.80
2022-11-26T02:17:38.701Z,5.69
2022-11-26T02:20:40.885Z,5.57
2022-11-26T02:23:07.186Z,5.48
2022-11-26T02:25:51.939Z,5.43
2022-11-26T02:28:37.120Z,5.34
2022-11-26T02:31:17.395Z,5.29
2022-11-26T02:34:11.097Z,5.29
2022-11-26T02:36:45.916Z,5.26
2022-11-26T02:39:16.553Z,5.26
2022-11-26T02:41:45.347Z,5.24
2022-11-26T02:44:13.984Z,5.20
2022-11-26T02:46:42.558Z,5.15
2022-11-26T02:49:11.702Z,5.09
2022-11-26T02:51:40.801Z,5.06
2022-11-26T02:54:09.302Z,5.07
2022-11-26T02:56:37.292Z,5.06
2022-11-26T02:59:05.721Z,5.03
2022-11-26T03:01:47.093Z,4.99
2022-11-26T03:04:21.827Z,4.92
2022-11-26T03:06:48.941Z,4.85
2022-11-26T03:09:18.842Z,4.85
2022-11-26T03:11:45.234Z,4.79
2022-11-26T03:14:11.771Z,4.75
2022-11-26T03:16:38.292Z,4.70
2022-11-26T03:19:04.978Z,4.62
2022-11-26T03:21:33.288Z,4.53
2022-11-26T03:23:59.918Z,4.43
2022-11-26T03:26:26.478Z,4.37
2022-11-26T03:28:52.878Z,4.29
2022-11-26T03:31:19.435Z,4.23
2022-11-26T03:33:45.773Z,4.21
2022-11-26T03:36:12.312Z,4.13
2022-11-26T03:38:38.675Z,4.15
2022-11-26T03:41:05.391Z,4.11
2022-11-26T03:43:31.809Z,4.18
2022-11-26T03:45:58.524Z,4.15
2022-11-26T03:48:24.895Z,4.12
2022-11-26T03:50:51.505Z,4.02
2022-11-26T03:53:18.016Z,3.92
2022-11-26T03:55:44.743Z,3.91
2022-11-26T03:58:11.158Z,3.89
2022-11-26T04:00:37.891Z,3.89
2022-11-26T04:03:04.410Z,3.83
2022-11-26T04:05:30.960Z,3.79
2022-11-26T04:07:57.425Z,3.72
2022-11-26T04:10:24.120Z,3.70
2022-11-26T04:12:50.458Z,3.69
2022-11-26T04:15:16.955Z,3.67
2022-11-26T04:17:43.419Z,3.57
2022-11-26T04:20:10.378Z,3.56
2022-11-26T04:22:36.784Z,3.51
2022-11-26T04:25:03.562Z,3.47
2022-11-26T04:27:30.003Z,3.42
2022-11-26T04:29:56.407Z,3.36
2022-11-26T04:32:22.915Z,3.34
2022-11-26T04:34:49.351Z,3.36
2022-11-26T04:37:16.015Z,3.37
2022-11-26T04:39:42.414Z,3.37
2022-11-26T04:42:08.984Z,3.35
2022-11-26T04:44:35.552Z,3.34
2022-11-26T04:47:02.309Z,3.32
2022-11-26T04:49:28.710Z,3.42
2022-11-26T04:51:55.240Z,3.61
2022-11-26T04:54:21.654Z,3.71
2022-11-26T04:56:48.246Z,3.84
2022-11-26T04:59:14.631Z,3.90
2022-11-26T05:01:42.177Z,3.96
2022-11-26T05:04:08.742Z,4.01
2022-11-26T05:06:35.171Z,4.01
2022-11-26T05:09:01.666Z,4.01
2022-11-26T05:11:28.332Z,4.07
2022-11-26T05:13:54.672Z,4.12
2022-11-26T05:16:21.323Z,4.12
2022-11-26T05:18:47.755Z,4.21
2022-11-26T05:21:14.125Z,4.16
2022-11-26T05:23:40.711Z,4.17
2022-11-26T05:26:07.184Z,4.16
2022-11-26T05:28:36.005Z,4.14
2022-11-26T05:31:03.558Z,4.13
2022-11-26T05:33:30.737Z,4.25
2022-11-26T05:35:57.139Z,4.07
2022-11-26T05:38:24.013Z,4.07
2022-11-26T05:40:50.444Z,4.16
2022-11-26T05:43:17.283Z,4.23
2022-11-26T05:45:43.730Z,4.19
2022-11-26T05:48:10.282Z,4.19
2022-11-26T05:50:36.854Z,4.15
2022-11-26T05:53:03.695Z,4.18
2022-11-26T05:55:30.056Z,4.07
2022-11-26T05:57:56.677Z,4.05
2022-11-26T06:00:23.357Z,4.04
2022-11-26T06:02:50.070Z,4.09
2022-11-26T06:05:16.944Z,4.06
2022-11-26T06:07:45.116Z,3.99
2022-11-26T06:10:12.938Z,4.00
2022-11-26T06:12:39.622Z,3.85
2022-11-26T06:15:06.660Z,3.74
2022-11-26T06:17:34.170Z,3.56
2022-11-26T06:20:00.560Z,3.59
2022-11-26T06:22:27.015Z,3.50
2022-11-26T06:24:53.631Z,3.45
2022-11-26T06:27:20.171Z,3.43
2022-11-26T06:29:46.545Z,3.44
2022-11-26T06:32:13.064Z,3.34
2022-11-26T06:34:40.911Z,3.21
2022-11-26T06:37:10.166Z,3.16
2022-11-26T06:39:36.564Z,3.19
2022-11-26T06:42:03.108Z,3.22
2022-11-26T06:44:29.520Z,3.22
2022-11-26T06:46:55.966Z,3.22
2022-11-26T06:49:22.375Z,3.21
2022-11-26T06:51:48.876Z,3.15
2022-11-26T06:54:15.465Z,3.14
2022-11-26T06:56:42.013Z,3.04
2022-11-26T06:59:08.373Z,2.99
2022-11-26T07:01:35.288Z,2.94
2022-11-26T07:04:01.712Z,2.91
2022-11-26T07:06:30.848Z,2.91
2022-11-26T07:08:58.498Z,2.92
2022-11-26T07:11:26.085Z,2.98
2022-11-26T07:13:52.730Z,3.01
2022-11-26T07:16:19.970Z,3.11
2022-11-26T07:18:59.254Z,3.18
2022-11-26T07:21:29.521Z,3.25
2022-11-26T07:23:56.205Z,3.35
2022-11-26T07:26:23.359Z,3.30
2022-11-26T07:28:49.820Z,3.41
2022-11-26T07:31:19.462Z,3.36
2022-11-26T07:33:47.081Z,3.32
2022-11-26T07:36:20.686Z,3.30
2022-11-26T07:38:47.805Z,3.26
2022-11-26T07:41:18.081Z,3.26
2022-11-26T07:43:45.128Z,3.26
2022-11-26T07:46:14.412Z,3.34
2022-11-26T07:48:41.016Z,3.44
2022-11-26T07:51:15.207Z,3.50
2022-11-26T07:53:41.591Z,3.64
2022-11-26T07:56:08.086Z,3.87
2022-11-26T07:58:35.109Z,4.02
2022-11-26T08:01:15.101Z,4.26
2022-11-26T08:03:44.079Z,4.37
2022-11-26T08:06:12.682Z,4.47
2022-11-26T08:08:39.291Z,4.46
2022-11-26T08:11:20.884Z,4.57
2022-11-26T08:13:48.951Z,4.48
2022-11-26T08:16:15.920Z,4.56
2022-11-26T08:18:42.772Z,4.65
2022-11-26T08:21:10.052Z,4.69
2022-11-26T08:23:37.554Z,4.69
2022-11-26T08:26:31.061Z,4.73
2022-11-26T08:28:55.805Z,4.73
2022-11-26T08:31:24.886Z,4.70
2022-11-26T08:33:51.614Z,4.63
2022-11-26T08:36:18.336Z,4.55
2022-11-26T08:38:44.695Z,4.62
2022-11-26T08:41:13.218Z,4.49
2022-11-26T08:44:05.162Z,4.48
2022-11-26T08:46:26.984Z,4.40
2022-11-26T08:48:56.536Z,4.37
2022-11-26T08:51:26.411Z,4.38
2022-11-26T08:53:53.058Z,4.40
2022-11-26T08:56:20.041Z,4.45
2022-11-26T08:58:48.574Z,4.53
2022-11-26T09:01:26.887Z,4.49
2022-11-26T09:03:55.297Z,4.48
2022-11-26T09:06:23.042Z,4.45
2022-11-26T09:09:08.518Z,4.36
2022-11-26T09:11:36.429Z,4.36
2022-11-26T09:14:04.499Z,4.29
2022-11-26T09:16:31.748Z,4.28
2022-11-26T09:19:02.792Z,4.25
2022-11-26T09:21:29.420Z,4.15
2022-11-26T09:23:56.134Z,4.14
2022-11-26T09:26:23.080Z,4.19
2022-11-26T09:28:50.017Z,4.20
2022-11-26T09:31:17.626Z,4.20
2022-11-26T09:33:45.059Z,4.23
2022-11-26T09:36:14.352Z,4.20
2022-11-26T09:38:41.275Z,4.21
2022-11-26T09:41:28.914Z,4.18
2022-11-26T09:44:20.430Z,4.26
2022-11-26T09:47:14.816Z,4.30
2022-11-26T09:49:51.167Z,4.31
2022-11-26T09:52:21.034Z,4.34
2022-11-26T09:54:50.334Z,4.40
2022-11-26T09:57:29.209Z,4.34
2022-11-26T09:59:56.120Z,4.33
2022-11-26T10:02:25.132Z,4.41
2022-11-26T10:04:52.126Z,4.49
2022-11-26T10:07:49.484Z,4.73
2022-11-26T10:10:34.334Z,4.87
2022-11-26T10:13:40.115Z,4.93
2022-11-26T10:16:18.959Z,4.80
2022-11-26T10:19:01.163Z,4.97
2022-11-26T10:21:59.375Z,5.00
2022-11-26T10:24:33.860Z,5.08
2022-11-26T10:27:09.677Z,5.25
2022-11-26T10:29:41.896Z,5.18
2022-11-26T10:32:35.227Z,5.30
2022-11-26T10:35:01.819Z,5.39
2022-11-26T10:37:29.325Z,5.43
2022-11-26T10:40:18.528Z,5.56
2022-11-26T10:43:18.519Z,5.72
2022-11-26T10:45:50.831Z,5.74
2022-11-26T10:48:29.526Z,5.76
2022-11-26T10:51:11.420Z,5.94
2022-11-26T10:53:52.418Z,5.90
2022-11-26T10:56:36.675Z,6.06
2022-11-26T10:59:19.995Z,6.04
2022-11-26T11:01:51.527Z,6.19
2022-11-26T11:04:31.150Z,6.23
2022-11-26T11:06:58.690Z,6.33
2022-11-26T11:09:31.949Z,6.35
2022-11-26T11:12:16.115Z,6.34
2022-11-26T11:14:45.529Z,6.35
2022-11-26T11:17:40.826Z,6.33
2022-11-26T11:20:16.587Z,6.35
2022-11-26T11:22:44.361Z,6.37
2022-11-26T11:25:32.334Z,6.43
2022-11-26T11:28:21.464Z,6.46
2022-11-26T11:31:01.685Z,6.53
2022-11-26T11:33:28.580Z,6.58
2022-11-26T11:35:59.918Z,6.54
2022-11-26T11:38:29.436Z,6.54
2022-11-26T11:40:56.361Z,6.57
2022-11-26T11:43:25.165Z,6.54
2022-11-26T11:46:08.460Z,6.52
2022-11-26T11:48:59.230Z,6.46
2022-11-26T11:52:07.758Z,6.67
2022-11-26T11:54:56.702Z,6.72
2022-11-26T11:57:38.466Z,6.83
2022-11-26T12:00:13.977Z,6.84
2022-11-26T12:02:59.562Z,6.85
2022-11-26T12:05:31.898Z,6.83
2022-11-26T12:08:26.336Z,6.79
2022-11-26T12:11:06.539Z,6.85
2022-11-26T12:13:41.559Z,6.82
2022-11-26T12:16:11.652Z,6.86
2022-11-26T12:18:47.960Z,6.87
2022-11-26T12:21:17.033Z,6.92
2022-11-26T12:23:59.383Z,6.90
2022-11-26T12:26:41.400Z,6.99
2022-11-26T12:29:21.283Z,6.95
2022-11-26T12:32:12.692Z,6.95
2022-11-26T12:34:56.955Z,7.07
2022-11-26T12:37:30.392Z,7.05
2022-11-26T12:40:01.323Z,7.01
2022-11-26T12:42:58.419Z,7.04
2022-11-26T12:46:15.712Z,7.05
2022-11-26T12:48:58.317Z,7.03
2022-11-26T12:51:26.172Z,7.03
2022-11-26T12:54:05.129Z,7.08
2022-11-26T12:56:41.973Z,7.13
2022-11-26T12:59:11.299Z,7.19
2022-11-26T13:01:37.986Z,7.19
2022-11-26T13:04:36.194Z,7.26
2022-11-26T13:06:52.218Z,7.24
2022-11-26T13:09:30.648Z,7.24
2022-11-26T13:12:15.261Z,7.29
2022-11-26T13:14:52.166Z,7.29
2022-11-26T13:17:24.048Z,7.39
2022-11-26T13:20:05.049Z,7.30
2022-11-26T13:22:53.588Z,7.25
2022-11-26T13:25:38.915Z,7.24
2022-11-26T13:28:32.252Z,7.27
2022-11-26T13:31:17.117Z,7.17
2022-11-26T13:34:17.778Z,7.26
2022-11-26T13:36:53.156Z,7.27
2022-11-26T13:39:37.894Z,7.18
2022-11-26T13:42:07.428Z,7.12
2022-11-26T13:44:51.199Z,7.16
2022-11-26T13:47:35.922Z,7.13
2022-11-26T13:50:12.924Z,7.10
2022-11-26T13:52:45.978Z,7.17
2022-11-26T13:55:20.740Z,7.18
2022-11-26T13:57:52.713Z,7.18
2022-11-26T14:00:31.416Z,7.24
2022-11-26T14:02:59.453Z,7.27
2022-11-26T14:05:52.319Z,7.24
2022-11-26T14:08:41.337Z,7.16
2022-11-26T14:11:09.304Z,7.20
2022-11-26T14:13:35.944Z,7.22
2022-11-26T14:16:07.115Z,7.16
2022-11-26T14:18:48.925Z,7.13
2022-11-26T14:21:16.892Z,7.16
2022-11-26T14:23:50.453Z,7.20
2022-11-26T14:26:24.272Z,7.11
2022-11-26T14:28:54.273Z,7.13
2022-11-26T14:31:27.903Z,7.08
2022-11-26T14:34:00.110Z,7.01
2022-11-26T14:36:29.425Z,6.98
2022-11-26T14:39:16.732Z,6.98
2022-11-26T14:41:43.246Z,6.92
2022-11-26T14:44:17.652Z,6.89
2022-11-26T14:46:50.763Z,6.86
2022-11-26T14:49:35.428Z,6.86
2022-11-26T14:52:05.536Z,6.91
2022-11-26T14:54:36.199Z,6.79
2022-11-26T14:57:17.244Z,6.79
2022-11-26T15:00:00.701Z,6.65
2022-11-26T15:02:29.774Z,6.57
2022-11-26T15:05:02.395Z,6.61
2022-11-26T15:07:30.020Z,6.52
2022-11-26T15:10:16.720Z,6.46
2022-11-26T15:12:44.236Z,6.38
2022-11-26T15:15:24.335Z,6.27
2022-11-26T15:17:55.063Z,6.26
2022-11-26T15:20:24.482Z,6.12
2022-11-26T15:22:58.974Z,6.09
2022-11-26T15:25:29.345Z,6.01
2022-11-26T15:27:59.023Z,5.97
2022-11-26T15:30:35.845Z,5.86
2022-11-26T15:33:08.183Z,5.81
2022-11-26T15:35:36.349Z,5.72
2022-11-26T15:38:12.874Z,5.81
2022-11-26T15:41:03.540Z,5.72
2022-11-26T15:43:52.207Z,5.61
2022-11-26T15:46:20.498Z,5.52
2022-11-26T15:48:52.816Z,5.42
2022-11-26T15:51:36.025Z,5.42
2022-11-26T15:54:19.192Z,5.37
2022-11-26T15:56:51.594Z,5.45
2022-11-26T15:59:20.443Z,5.31
2022-11-26T16:01:47.299Z,5.23
2022-11-26T16:04:32.740Z,5.24
2022-11-26T16:07:17.652Z,5.29
2022-11-26T16:09:45.368Z,5.21
2022-11-26T16:12:26.680Z,5.19
2022-11-26T16:14:53.240Z,5.14
2022-11-26T16:17:20.770Z,5.23
2022-11-26T16:19:51.320Z,5.16
2022-11-26T16:22:22.924Z,5.08
2022-11-26T16:25:07.105Z,5.05
2022-11-26T16:27:34.600Z,5.10
2022-11-26T16:30:15.076Z,5.03
2022-11-26T16:32:41.419Z,4.95
2022-11-26T16:35:29.788Z,4.89
2022-11-26T16:37:55.022Z,4.89
2022-11-26T16:40:21.884Z,4.84
2022-11-26T16:42:48.644Z,4.91
2022-11-26T16:45:15.739Z,4.88
2022-11-26T16:47:45.696Z,4.95
2022-11-26T16:50:23.749Z,4.94
2022-11-26T16:52:51.009Z,5.00
2022-11-26T16:55:20.305Z,5.03
2022-11-26T16:57:49.784Z,4.97
2022-11-26T17:00:22.036Z,5.03
2022-11-26T17:02:48.820Z,5.05
2022-11-26T17:05:16.597Z,5.02
2022-11-26T17:07:46.613Z,5.07
2022-11-26T17:10:24.862Z,5.07
2022-11-26T17:12:52.630Z,5.03
2022-11-26T17:15:19.106Z,5.03
2022-11-26T17:17:46.383Z,4.97
2022-11-26T17:20:17.162Z,4.99
2022-11-26T17:22:45.258Z,5.03
2022-11-26T17:25:12.711Z,5.04
2022-11-26T17:27:40.044Z,4.99
2022-11-26T17:30:07.998Z,4.99
2022-11-26T17:32:34.410Z,4.98
2022-11-26T17:35:00.942Z,4.97
2022-11-26T17:37:29.662Z,4.97
2022-11-26T17:39:57.397Z,4.98
2022-11-26T17:42:24.881Z,5.00
2022-11-26T17:44:52.672Z,4.95
2022-11-26T17:47:21.474Z,4.94
2022-11-26T17:49:48.331Z,4.97
2022-11-26T17:52:15.944Z,4.98
2022-11-26T17:54:43.454Z,5.02
2022-11-26T17:57:11.585Z,5.02
2022-11-26T17:59:38.736Z,4.99
2022-11-26T18:02:05.378Z,5.02
2022-11-26T18:04:31.859Z,4.86
2022-11-26T18:07:15.444Z,4.84
2022-11-26T18:09:42.393Z,4.81
2022-11-26T18:12:19.024Z,4.81
2022-11-26T18:14:48.223Z,4.81
2022-11-26T18:17:15.349Z,4.77
2022-11-26T18:19:43.780Z,4.74
2022-11-26T18:22:14.297Z,4.68
2022-11-26T18:24:40.922Z,4.81
2022-11-26T18:27:07.303Z,4.73
2022-11-26T18:29:33.999Z,4.68
2022-11-26T18:32:00.492Z,4.57
2022-11-26T18:34:27.034Z,4.51
2022-11-26T18:36:54.052Z,4.47
2022-11-26T18:39:21.440Z,4.44
2022-11-26T18:41:47.859Z,4.41
2022-11-26T18:44:14.407Z,4.42
2022-11-26T18:46:41.101Z,4.34
2022-11-26T18:49:07.566Z,4.27
2022-11-26T18:51:33.970Z,4.26
2022-11-26T18:54:01.662Z,4.19
2022-11-26T18:56:27.992Z,4.19
2022-11-26T18:58:55.537Z,4.17
2022-11-26T19:01:28.313Z,4.19
2022-11-26T19:03:57.279Z,4.18
2022-11-26T19:06:25.885Z,4.24
2022-11-26T19:08:58.347Z,4.17
2022-11-26T19:11:25.353Z,4.12
2022-11-26T19:13:52.102Z,4.08
2022-11-26T19:16:19.893Z,4.10
2022-11-26T19:18:47.290Z,4.05
2022-11-26T19:21:26.659Z,4.10
2022-11-26T19:23:54.769Z,4.00
2022-11-26T19:26:22.552Z,3.89
2022-11-26T19:28:49.818Z,4.15
2022-11-26T19:31:19.471Z,4.09
2022-11-26T19:33:47.506Z,3.99
2022-11-26T19:36:16.770Z,3.93
2022-11-26T19:38:45.516Z,3.96
2022-11-26T19:41:12.906Z,3.89
2022-11-26T19:43:41.924Z,3.96
2022-11-26T19:46:14.433Z,3.97
2022-11-26T19:48:42.855Z,3.96
2022-11-26T19:51:10.295Z,3.90
2022-11-26T19:53:37.726Z,3.91
2022-11-26T19:56:15.480Z,3.91
2022-11-26T19:58:42.022Z,3.86
2022-11-26T20:01:11.481Z,3.90
2022-11-26T20:03:38.062Z,3.89
2022-11-26T20:06:07.473Z,3.83
2022-11-26T20:08:35.708Z,3.82
2022-11-26T20:11:04.296Z,3.82
2022-11-26T20:13:30.771Z,3.80
2022-11-26T20:15:57.241Z,3.76
2022-11-26T20:18:23.748Z,3.77
2022-11-26T20:21:11.250Z,3.86
2022-11-26T20:23:38.413Z,3.80
2022-11-26T20:26:14.570Z,3.80
2022-11-26T20:28:40.967Z,3.78
2022-11-26T20:31:07.611Z,3.78
2022-11-26T20:33:34.903Z,3.71
2022-11-26T20:36:05.646Z,3.64
2022-11-26T20:38:32.058Z,3.64
2022-11-26T20:40:58.542Z,3.62
2022-11-26T20:43:24.946Z,3.61
2022-11-26T20:46:02.674Z,3.68
2022-11-26T20:48:30.680Z,3.59
2022-11-26T20:51:02.597Z,3.58
2022-11-26T20:53:29.725Z,3.61
2022-11-26T20:55:56.849Z,3.73
2022-11-26T20:58:24.304Z,3.79
2022-11-26T21:00:51.520Z,3.77
2022-11-26T21:03:17.888Z,3.81
2022-11-26T21:05:44.452Z,3.81
2022-11-26T21:08:10.830Z,3.89
2022-11-26T21:10:40.286Z,3.89
2022-11-26T21:13:08.404Z,3.94
2022-11-26T21:15:34.940Z,4.04
2022-11-26T21:18:02.181Z,3.98
2022-11-26T21:20:33.413Z,3.97
2022-11-26T21:23:02.427Z,4.02
2022-11-26T21:25:29.975Z,3.97
2022-11-26T21:27:56.515Z,3.97
2022-11-26T21:30:22.979Z,3.92
2022-11-26T21:32:49.547Z,3.96
2022-11-26T21:35:16.075Z,3.90
2022-11-26T21:37:42.599Z,3.96
2022-11-26T21:40:09.580Z,4.01
2022-11-26T21:42:36.155Z,3.96
2022-11-26T21:45:02.565Z,4.07
2022-11-26T21:47:29.114Z,4.12
2022-11-26T21:49:55.481Z,4.13
2022-11-26T21:52:21.888Z,4.19
2022-11-26T21:54:48.354Z,4.13
2022-11-26T21:57:14.742Z,4.05
2022-11-26T21:59:41.815Z,4.13
2022-11-26T22:02:11.777Z,4.16
2022-11-26T22:04:38.314Z,4.19
2022-11-26T22:07:05.465Z,4.12
2022-11-26T22:09:31.925Z,4.15
2022-11-26T22:11:58.342Z,4.15
2022-11-26T22:14:24.866Z,4.15
2022-11-26T22:16:52.529Z,4.19
2022-11-26T22:19:19.324Z,4.18
2022-11-26T22:21:45.820Z,4.10
2022-11-26T22:24:17.522Z,4.13
2022-11-26T22:26:44.608Z,4.16
2022-11-26T22:29:16.485Z,4.19
2022-11-26T22:31:43.830Z,4.14
2022-11-26T22:34:21.870Z,4.21
2022-11-26T22:36:48.380Z,4.19
2022-11-26T22:39:18.302Z,4.20
2022-11-26T22:41:46.190Z,4.18
2022-11-26T22:44:13.666Z,4.09
2022-11-26T22:46:40.108Z,4.17
2022-11-26T22:49:07.527Z,4.16
2022-11-26T22:51:34.973Z,4.16
2022-11-26T22:54:07.200Z,4.18
2022-11-26T22:56:34.408Z,4.10
2022-11-26T22:59:01.844Z,4.07
2022-11-26T23:01:31.257Z,4.08
2022-11-26T23:03:59.522Z,4.10
2022-11-26T23:06:28.250Z,4.11
2022-11-26T23:08:55.996Z,4.15
2022-11-26T23:11:28.757Z,4.10
2022-11-26T23:13:55.814Z,4.13
2022-11-26T23:16:24.709Z,4.12
2022-11-26T23:18:53.325Z,4.17
2022-11-26T23:21:34.476Z,4.18
2022-11-26T23:24:01.264Z,4.18
2022-11-26T23:26:32.026Z,4.17
2022-11-26T23:29:00.291Z,4.14
2022-11-26T23:31:33.679Z,4.11
2022-11-26T23:34:00.910Z,4.10
2022-11-26T23:36:28.800Z,4.06
2022-11-26T23:38:55.875Z,4.08
2022-11-26T23:41:23.041Z,4.04
2022-11-26T23:43:50.168Z,4.02
2022-11-26T23:46:21.047Z,3.94
2022-11-26T23:48:48.682Z,4.00
2022-11-26T23:51:18.213Z,4.05
2022-11-26T23:53:45.941Z,4.05
2022-11-26T23:56:16.416Z,4.00
2022-11-26T23:58:43.832Z,4.03
